LPPT/LIS METAR and TAF weather

Enter ICAO airport designator
Station Type Date Time Source
LPPT METAR 2020/09/28 08:30 UTC NOAA

LPPT 280830Z 33008KT 290V350 CAVOK 18/14 Q1017


Station Type Date Time Source
LPPT Decoded METAR 2020/09/28 08:30 UTC NOAA

Lisboa / Portela, Portugal (LPPT) 38-46N 009-08W 123M
Sep 28, 2020 - 04:30 AM EDT / 2020.09.28 0830 UTC
Wind: from the NNW (330 degrees) at 9 MPH (8 KT) (direction variable):0
Visibility: greater than 7 mile(s):0
Temperature: 64 F (18 C)
Dew Point: 57 F (14 C)
Relative Humidity: 77%
Pressure (altimeter): 30.03 in. Hg (1017 hPa)
ob: LPPT 280830Z 33008KT 290V350 CAVOK 18/14 Q1017
cycle: 8

Station Type Date Time Source
LPPT TAF 2020/09/28 06:18 UTC NOAA

TAF LPPT 280500Z 2806/2912 32005KT CAVOK
BECMG 2809/2812 VRB05KT
BECMG 2814/2816 32010KT
BECMG 2820/2823 35007KT

Example: see airport list